KSMF/SMF METAR and TAF weather

Enter ICAO airport designator
Station Type Date Time Source
KSMF METAR 2024/02/26 16:53 UTC NOAA

KSMF 261653Z 18008KT 10SM SCT035 13/09 A3001 RMK AO2 SLP163 T01330089


Station Type Date Time Source
KSMF Decoded METAR 2024/02/26 16:53 UTC NOAA

SACRAMENTO INTERNATIONAL AIRPORT, CA, United States (KSMF) 38-42N 121-36W 6M
Feb 26, 2024 - 11:53 AM EST / 2024.02.26 1653 UTC
Wind: from the S (180 degrees) at 9 MPH (8 KT):0
Visibility: 10 mile(s):0
Sky conditions: partly cloudy
Temperature: 55.9 F (13.3 C)
Dew Point: 48.0 F (8.9 C)
Relative Humidity: 74%
Pressure (altimeter): 30.01 in. Hg (1016 hPa)
ob: KSMF 261653Z 18008KT 10SM SCT035 13/09 A3001 RMK AO2 SLP163 T01330089
cycle: 17

Station Type Date Time Source
KSMF TAF 2024/02/26 12:28 UTC NOAA